createdAt,value
2022-10-17T00:01:10.003Z,11.83
2022-10-17T00:03:40.029Z,12.73
2022-10-17T00:06:09.808Z,12.43
2022-10-17T00:08:38.725Z,12.03
2022-10-17T00:11:09.246Z,11.60
2022-10-17T00:13:37.608Z,12.77
2022-10-17T00:16:07.845Z,14.53
2022-10-17T00:18:35.962Z,16.23
2022-10-17T00:21:04.027Z,16.23
2022-10-17T00:23:32.173Z,15.87
2022-10-17T00:26:01.174Z,15.93
2022-10-17T00:28:29.389Z,15.20
2022-10-17T00:30:58.095Z,13.63
2022-10-17T00:33:28.555Z,15.53
2022-10-17T00:36:04.818Z,13.47
2022-10-17T00:38:32.825Z,10.97
2022-10-17T00:41:00.850Z,12.23
2022-10-17T00:43:29.687Z,7.40
2022-10-17T00:45:57.667Z,7.10
2022-10-17T00:48:27.207Z,5.60
2022-10-17T00:50:55.865Z,7.53
2022-10-17T00:53:23.874Z,7.53
2022-10-17T00:55:54.208Z,7.90
2022-10-17T00:58:22.565Z,8.40
2022-10-17T01:00:50.623Z,9.50
2022-10-17T01:03:18.640Z,10.20
2022-10-17T01:05:48.262Z,10.47
2022-10-17T01:08:16.974Z,10.63
2022-10-17T01:10:57.971Z,10.30
2022-10-17T01:13:31.393Z,9.30
2022-10-17T01:16:08.802Z,9.47
2022-10-17T01:18:48.696Z,9.70
2022-10-17T01:21:34.670Z,9.13
2022-10-17T01:24:38.448Z,10.17
2022-10-17T01:27:46.076Z,11.00
2022-10-17T01:30:38.423Z,12.20
2022-10-17T01:33:14.470Z,10.80
2022-10-17T01:35:53.551Z,10.63
2022-10-17T01:38:26.044Z,9.43
2022-10-17T01:41:01.539Z,8.70
2022-10-17T01:43:35.891Z,9.97
2022-10-17T01:46:11.719Z,9.77
2022-10-17T01:48:44.453Z,8.77
2022-10-17T01:51:18.729Z,9.70
2022-10-17T01:53:53.603Z,9.70
2022-10-17T01:56:25.638Z,8.63
2022-10-17T01:58:58.984Z,8.23
2022-10-17T02:01:30.063Z,8.50
2022-10-17T02:04:00.967Z,8.23
2022-10-17T02:06:29.182Z,8.53
2022-10-17T02:08:57.205Z,7.97
2022-10-17T02:11:27.304Z,8.60
2022-10-17T02:14:19.636Z,7.90
2022-10-17T02:16:58.430Z,8.00
2022-10-17T02:19:52.283Z,7.00
2022-10-17T02:22:31.465Z,7.07
2022-10-17T02:25:03.968Z,6.50
2022-10-17T02:27:43.729Z,6.83
2022-10-17T02:30:16.226Z,7.33
2022-10-17T02:32:50.257Z,7.30
2022-10-17T02:35:22.501Z,7.20
2022-10-17T02:37:52.477Z,8.20
2022-10-17T02:40:23.873Z,7.50
2022-10-17T02:42:54.333Z,7.70
2022-10-17T02:45:24.681Z,7.53
2022-10-17T02:48:00.111Z,7.00
2022-10-17T02:50:40.510Z,7.00
2022-10-17T02:53:13.579Z,6.80
2022-10-17T02:55:47.232Z,7.07
2022-10-17T02:58:20.930Z,7.23
2022-10-17T03:00:49.382Z,7.80
2022-10-17T03:03:22.710Z,7.30
2022-10-17T03:05:52.402Z,7.43
2022-10-17T03:08:20.679Z,7.37
2022-10-17T03:10:48.732Z,7.83
2022-10-17T03:13:17.110Z,8.27
2022-10-17T03:15:44.929Z,8.23
2022-10-17T03:18:13.152Z,8.73
2022-10-17T03:20:41.195Z,7.83
2022-10-17T03:23:10.516Z,8.37
2022-10-17T03:25:38.636Z,8.90
2022-10-17T03:28:06.693Z,7.90
2022-10-17T03:30:34.937Z,7.93
2022-10-17T03:33:02.777Z,7.23
2022-10-17T03:35:30.674Z,7.13
2022-10-17T03:37:58.467Z,7.50
2022-10-17T03:40:27.774Z,8.07
2022-10-17T03:42:55.663Z,7.77
2022-10-17T03:45:23.555Z,7.63
2022-10-17T03:47:51.320Z,7.70
2022-10-17T03:50:19.120Z,7.97
2022-10-17T03:52:47.884Z,7.73
2022-10-17T03:55:16.011Z,7.80
2022-10-17T03:57:45.737Z,6.63
2022-10-17T04:00:14.663Z,7.40
2022-10-17T04:02:42.551Z,6.60
2022-10-17T04:05:10.708Z,7.57
2022-10-17T04:07:38.683Z,7.27
2022-10-17T04:10:07.593Z,6.97
2022-10-17T04:12:35.447Z,7.63
2022-10-17T04:15:05.123Z,6.87
2022-10-17T04:17:37.293Z,7.70
2022-10-17T04:20:06.951Z,6.80
2022-10-17T04:22:34.848Z,6.73
2022-10-17T04:25:02.874Z,7.10
2022-10-17T04:27:30.788Z,6.80
2022-10-17T04:29:58.845Z,7.47
2022-10-17T04:32:28.372Z,7.37
2022-10-17T04:34:56.375Z,8.43
2022-10-17T04:37:24.352Z,8.63
2022-10-17T04:39:52.267Z,8.83
2022-10-17T04:42:20.066Z,7.83
2022-10-17T04:44:47.954Z,7.70
2022-10-17T04:47:15.866Z,8.40
2022-10-17T04:49:45.241Z,7.20
2022-10-17T04:52:13.352Z,10.77
2022-10-17T04:54:41.291Z,8.50
2022-10-17T04:57:09.248Z,7.33
2022-10-17T04:59:37.078Z,7.10
2022-10-17T05:02:05.117Z,7.17
2022-10-17T05:04:33.039Z,6.77
2022-10-17T05:07:02.357Z,7.13
2022-10-17T05:09:30.762Z,7.20
2022-10-17T05:11:58.782Z,7.27
2022-10-17T05:14:26.626Z,7.53
2022-10-17T05:16:54.568Z,7.63
2022-10-17T05:19:22.403Z,7.37
2022-10-17T05:21:50.669Z,7.10
2022-10-17T05:24:20.030Z,7.10
2022-10-17T05:26:47.872Z,7.37
2022-10-17T05:29:16.130Z,7.60
2022-10-17T05:31:44.117Z,7.27
2022-10-17T05:34:13.922Z,7.03
2022-10-17T05:36:42.113Z,6.57
2022-10-17T05:39:10.087Z,6.13
2022-10-17T05:41:39.958Z,6.27
2022-10-17T05:44:10.408Z,6.73
2022-10-17T05:46:38.353Z,7.37
2022-10-17T05:49:19.421Z,7.60
2022-10-17T05:51:54.576Z,7.40
2022-10-17T05:54:22.465Z,7.53
2022-10-17T05:56:58.842Z,7.47
2022-10-17T05:59:28.143Z,7.07
2022-10-17T06:01:57.576Z,7.53
2022-10-17T06:04:27.867Z,6.90
2022-10-17T06:06:56.528Z,7.30
2022-10-17T06:09:24.843Z,7.93
2022-10-17T06:11:54.166Z,8.37
2022-10-17T06:14:22.310Z,7.53
2022-10-17T06:16:50.166Z,7.47
2022-10-17T06:19:18.124Z,7.90
2022-10-17T06:21:46.048Z,8.23
2022-10-17T06:24:14.120Z,8.17
2022-10-17T06:26:42.029Z,8.53
2022-10-17T06:29:11.823Z,8.63
2022-10-17T06:31:39.895Z,8.97
2022-10-17T06:34:08.023Z,7.93
2022-10-17T06:36:36.471Z,8.10
2022-10-17T06:39:05.074Z,7.53
2022-10-17T06:41:33.081Z,7.70
2022-10-17T06:44:01.276Z,6.87
2022-10-17T06:46:31.040Z,6.57
2022-10-17T06:48:59.211Z,7.17
2022-10-17T06:51:27.481Z,6.50
2022-10-17T06:53:57.300Z,6.53
2022-10-17T06:56:25.825Z,6.30
2022-10-17T06:58:54.849Z,6.97
2022-10-17T07:01:23.228Z,7.20
2022-10-17T07:03:52.694Z,5.93
2022-10-17T07:06:20.726Z,6.23
2022-10-17T07:08:48.619Z,6.37
2022-10-17T07:11:19.446Z,6.03
2022-10-17T07:13:48.214Z,5.37
2022-10-17T07:16:17.545Z,6.27
2022-10-17T07:18:46.985Z,6.20
2022-10-17T07:21:16.310Z,6.80
2022-10-17T07:23:44.413Z,6.10
2022-10-17T07:26:15.092Z,7.23
2022-10-17T07:28:45.170Z,6.03
2022-10-17T07:31:15.967Z,6.67
2022-10-17T07:36:18.753Z,6.23
2022-10-17T07:38:46.723Z,6.60
2022-10-17T07:41:19.182Z,6.57
2022-10-17T07:43:49.929Z,6.07
2022-10-17T07:46:17.935Z,6.43
2022-10-17T07:48:46.362Z,6.07
2022-10-17T07:51:14.599Z,6.50
2022-10-17T07:53:47.977Z,6.37
2022-10-17T07:56:16.946Z,6.33
2022-10-17T07:58:44.855Z,6.53
2022-10-17T08:01:15.654Z,7.03
2022-10-17T08:03:45.747Z,6.40
2022-10-17T08:06:14.387Z,6.40
2022-10-17T08:08:44.353Z,6.27
2022-10-17T08:11:14.736Z,7.17
2022-10-17T08:13:43.331Z,6.33
2022-10-17T08:16:13.483Z,6.27
2022-10-17T08:18:42.692Z,6.23
2022-10-17T08:21:11.644Z,6.60
2022-10-17T08:23:39.548Z,6.00
2022-10-17T08:26:10.777Z,6.50
2022-10-17T08:28:39.780Z,6.80
2022-10-17T08:31:09.548Z,8.20
2022-10-17T08:33:37.558Z,5.53
2022-10-17T08:36:06.918Z,5.83
2022-10-17T08:38:36.908Z,5.43
2022-10-17T08:41:14.150Z,5.50
2022-10-17T08:43:54.432Z,5.87
2022-10-17T08:46:22.427Z,5.40
2022-10-17T08:48:52.632Z,4.97
2022-10-17T08:51:24.208Z,5.33
2022-10-17T08:53:57.056Z,4.20
2022-10-17T08:56:44.530Z,4.63
2022-10-17T08:59:22.626Z,4.30
2022-10-17T09:01:56.219Z,3.80
2022-10-17T09:04:46.618Z,3.90
2022-10-17T09:07:21.424Z,3.90
2022-10-17T09:09:58.110Z,4.03
2022-10-17T09:12:49.034Z,5.17
2022-10-17T09:15:50.844Z,3.70
2022-10-17T09:18:25.010Z,3.30
2022-10-17T09:20:55.904Z,3.87
2022-10-17T09:23:27.059Z,3.37
2022-10-17T09:26:03.260Z,3.13
2022-10-17T09:28:38.677Z,3.30
2022-10-17T09:31:13.097Z,3.27
2022-10-17T09:33:54.971Z,3.87
2022-10-17T09:36:29.537Z,3.00
2022-10-17T09:39:00.143Z,2.87
2022-10-17T09:41:50.254Z,3.30
2022-10-17T09:44:22.923Z,3.60
2022-10-17T09:47:10.943Z,3.23
2022-10-17T09:49:40.899Z,3.23
2022-10-17T09:52:20.338Z,3.10
2022-10-17T09:54:50.494Z,3.33
2022-10-17T09:57:20.370Z,3.27
2022-10-17T09:59:58.452Z,2.87
2022-10-17T10:02:29.093Z,2.63
2022-10-17T10:05:05.012Z,3.10
2022-10-17T10:07:36.423Z,2.93
2022-10-17T10:10:07.404Z,3.00
2022-10-17T10:12:37.690Z,2.50
2022-10-17T10:15:32.399Z,2.80
2022-10-17T10:18:00.465Z,2.77
2022-10-17T10:20:34.945Z,2.70
2022-10-17T10:23:17.668Z,2.80
2022-10-17T10:25:55.977Z,2.60
2022-10-17T10:28:28.022Z,2.93
2022-10-17T10:30:59.645Z,2.40
2022-10-17T10:33:31.139Z,2.53
2022-10-17T10:36:03.320Z,2.80
2022-10-17T10:38:34.370Z,2.77
2022-10-17T10:41:05.354Z,2.50
2022-10-17T10:43:37.846Z,2.37
2022-10-17T10:46:18.746Z,2.40
2022-10-17T10:48:56.651Z,2.10
2022-10-17T10:51:31.708Z,2.30
2022-10-17T10:54:06.466Z,2.50
2022-10-17T10:56:38.825Z,2.63
2022-10-17T10:59:14.520Z,2.80
2022-10-17T11:01:50.396Z,2.00
2022-10-17T11:04:29.299Z,2.10
2022-10-17T11:07:07.439Z,2.30
2022-10-17T11:09:48.050Z,2.20
2022-10-17T11:12:22.355Z,2.57
2022-10-17T11:14:57.411Z,2.20
2022-10-17T11:17:35.062Z,2.40
2022-10-17T11:20:19.846Z,2.27
2022-10-17T11:22:49.989Z,2.33
2022-10-17T11:25:32.301Z,2.30
2022-10-17T11:28:04.677Z,2.50
2022-10-17T11:30:42.345Z,2.40
2022-10-17T11:33:18.431Z,2.50
2022-10-17T11:35:49.788Z,2.27
2022-10-17T11:38:25.024Z,2.20
2022-10-17T11:40:57.293Z,2.10
2022-10-17T11:43:29.927Z,2.13
2022-10-17T11:46:01.909Z,2.27
2022-10-17T11:48:38.291Z,2.20
2022-10-17T11:54:03.941Z,2.00
2022-10-17T11:56:42.930Z,2.20
2022-10-17T11:59:45.660Z,1.80
2022-10-17T12:02:23.069Z,2.00
2022-10-17T12:05:02.213Z,2.30
2022-10-17T12:07:39.230Z,2.30
2022-10-17T12:10:21.079Z,1.93
2022-10-17T12:12:49.468Z,2.30
2022-10-17T12:15:32.185Z,1.93
2022-10-17T12:18:02.683Z,1.90
2022-10-17T12:20:36.976Z,2.00
2022-10-17T12:23:23.107Z,2.30
2022-10-17T12:25:55.882Z,2.00
2022-10-17T12:28:30.471Z,1.90
2022-10-17T12:31:01.356Z,1.93
2022-10-17T12:33:34.539Z,2.00
2022-10-17T12:36:44.836Z,2.07
2022-10-17T12:39:47.563Z,2.20
2022-10-17T12:42:47.580Z,2.03
2022-10-17T12:45:51.368Z,2.20
2022-10-17T12:48:54.343Z,2.00
2022-10-17T12:51:40.507Z,1.87
2022-10-17T12:54:12.954Z,1.87
2022-10-17T12:56:45.374Z,1.90
2022-10-17T12:59:18.208Z,2.03
2022-10-17T13:01:49.509Z,2.20
2022-10-17T13:04:18.792Z,1.97
2022-10-17T13:06:48.645Z,2.07
2022-10-17T13:09:26.771Z,2.13
2022-10-17T13:11:59.255Z,2.25
2022-10-17T13:14:27.970Z,2.25
2022-10-17T13:16:58.887Z,2.00
2022-10-17T13:19:30.338Z,2.03
2022-10-17T13:22:06.466Z,2.13
2022-10-17T13:24:37.093Z,1.98
2022-10-17T13:27:08.240Z,2.03
2022-10-17T13:29:36.219Z,2.00
2022-10-17T13:32:06.277Z,2.08
2022-10-17T13:34:35.119Z,2.08
2022-10-17T13:37:05.434Z,1.98
2022-10-17T13:39:54.499Z,1.77
2022-10-17T13:42:28.184Z,2.03
2022-10-17T13:44:57.928Z,2.10
2022-10-17T13:47:28.003Z,1.75
2022-10-17T13:49:57.384Z,2.00
2022-10-17T13:52:28.218Z,1.80
2022-10-17T13:55:07.006Z,1.98
2022-10-17T13:57:36.418Z,2.30
2022-10-17T14:00:12.488Z,2.20
2022-10-17T14:02:42.008Z,2.00
2022-10-17T14:05:18.600Z,1.90
2022-10-17T14:08:10.754Z,1.65
2022-10-17T14:10:42.684Z,2.17
2022-10-17T14:13:22.515Z,2.83
2022-10-17T14:15:51.908Z,2.25
2022-10-17T14:18:22.309Z,2.30
2022-10-17T14:23:42.065Z,1.83
2022-10-17T14:26:16.394Z,1.85
2022-10-17T14:28:48.438Z,2.25
2022-10-17T14:31:33.285Z,2.13
2022-10-17T14:34:02.666Z,2.30
2022-10-17T14:36:37.261Z,2.10
2022-10-17T14:39:12.019Z,1.90
2022-10-17T14:41:45.394Z,2.17
2022-10-17T14:44:27.577Z,2.10
2022-10-17T14:46:59.261Z,2.10
2022-10-17T14:49:33.446Z,2.10
2022-10-17T14:52:27.794Z,2.00
2022-10-17T14:54:56.659Z,2.20
2022-10-17T14:57:29.522Z,1.98
2022-10-17T14:59:59.031Z,2.10
2022-10-17T15:02:28.735Z,2.50
2022-10-17T15:04:59.516Z,2.23
2022-10-17T15:07:27.315Z,2.30
2022-10-17T15:09:55.363Z,2.23
2022-10-17T15:12:25.911Z,2.00
2022-10-17T15:14:54.714Z,2.30
2022-10-17T15:17:28.235Z,2.20
2022-10-17T15:19:56.973Z,2.40
2022-10-17T15:22:25.748Z,2.10
2022-10-17T15:24:57.423Z,2.10
2022-10-17T15:27:28.906Z,2.37
2022-10-17T15:29:56.978Z,2.30
2022-10-17T15:32:34.504Z,2.60
2022-10-17T15:35:02.918Z,2.10
2022-10-17T15:37:36.015Z,2.30
2022-10-17T15:40:05.487Z,1.90
2022-10-17T15:42:33.990Z,2.27
2022-10-17T15:45:03.049Z,2.50
2022-10-17T15:47:38.138Z,2.20
2022-10-17T15:50:08.901Z,2.37
2022-10-17T15:52:37.619Z,2.03
2022-10-17T15:55:06.922Z,2.67
2022-10-17T15:57:38.024Z,2.30
2022-10-17T16:00:14.125Z,2.30
2022-10-17T16:02:47.107Z,2.33
2022-10-17T16:05:18.057Z,2.30
2022-10-17T16:07:49.002Z,2.10
2022-10-17T16:10:20.732Z,2.57
2022-10-17T16:12:50.350Z,2.60
2022-10-17T16:15:27.082Z,3.33
2022-10-17T16:18:05.910Z,2.43
2022-10-17T16:20:35.890Z,3.07
2022-10-17T16:23:10.924Z,3.00
2022-10-17T16:25:40.330Z,3.60
2022-10-17T16:28:09.535Z,3.10
2022-10-17T16:30:46.609Z,3.17
2022-10-17T16:33:16.517Z,2.73
2022-10-17T16:35:46.638Z,2.70
2022-10-17T16:38:15.149Z,3.37
2022-10-17T16:40:43.633Z,3.20
2022-10-17T16:43:14.242Z,3.37
2022-10-17T16:45:43.331Z,2.90
2022-10-17T16:48:12.217Z,3.23
2022-10-17T16:50:42.056Z,3.80
2022-10-17T16:53:09.978Z,3.30
2022-10-17T16:55:37.823Z,3.47
2022-10-17T16:58:05.727Z,3.53
2022-10-17T17:00:33.952Z,3.50
2022-10-17T17:03:02.288Z,3.50
2022-10-17T17:05:30.220Z,4.27
2022-10-17T17:07:59.897Z,3.30
2022-10-17T17:10:27.788Z,4.10
2022-10-17T17:12:55.776Z,3.90
2022-10-17T17:15:23.697Z,4.30
2022-10-17T17:17:55.247Z,4.23
2022-10-17T17:20:23.771Z,4.23
2022-10-17T17:22:52.305Z,3.97
2022-10-17T17:25:22.095Z,3.97
2022-10-17T17:27:50.559Z,3.60
2022-10-17T17:30:18.929Z,5.63
2022-10-17T17:32:47.043Z,5.43
2022-10-17T17:35:15.329Z,4.63
2022-10-17T17:37:43.306Z,4.33
2022-10-17T17:40:12.343Z,4.13
2022-10-17T17:42:41.602Z,4.50
2022-10-17T17:45:10.559Z,4.40
2022-10-17T17:47:38.472Z,4.53
2022-10-17T17:50:07.581Z,5.10
2022-10-17T17:52:35.926Z,5.23
2022-10-17T17:55:04.279Z,4.70
2022-10-17T17:57:32.926Z,4.53
2022-10-17T18:00:02.618Z,4.53
2022-10-17T18:02:33.526Z,4.70
2022-10-17T18:05:02.045Z,5.30
2022-10-17T18:07:32.147Z,5.53
2022-10-17T18:10:02.890Z,6.43
2022-10-17T18:12:31.450Z,6.77
2022-10-17T18:14:59.582Z,6.07
2022-10-17T18:17:29.387Z,5.70
2022-10-17T18:19:57.293Z,7.23
2022-10-17T18:22:25.284Z,7.50
2022-10-17T18:24:53.365Z,6.73
2022-10-17T18:27:21.184Z,7.20
2022-10-17T18:29:50.497Z,7.50
2022-10-17T18:32:18.755Z,7.07
2022-10-17T18:34:47.974Z,6.57
2022-10-17T18:37:15.906Z,7.03
2022-10-17T18:39:43.830Z,6.73
2022-10-17T18:42:11.910Z,6.47
2022-10-17T18:44:39.806Z,6.47
2022-10-17T18:47:08.128Z,8.43
2022-10-17T18:49:36.979Z,7.00
2022-10-17T18:52:06.591Z,7.47
2022-10-17T18:54:34.782Z,7.90
2022-10-17T18:57:03.056Z,8.90
2022-10-17T18:59:31.027Z,8.00
2022-10-17T19:01:59.129Z,8.23
2022-10-17T19:04:27.644Z,8.50
2022-10-17T19:06:55.676Z,7.70
2022-10-17T19:09:25.195Z,7.23
2022-10-17T19:11:53.827Z,7.30
2022-10-17T19:14:21.732Z,7.27
2022-10-17T19:16:51.930Z,8.13
2022-10-17T19:19:24.230Z,7.47
2022-10-17T19:21:53.037Z,7.60
2022-10-17T19:24:25.369Z,7.57
2022-10-17T19:26:55.169Z,8.13
2022-10-17T19:29:25.178Z,8.63
2022-10-17T19:34:21.983Z,7.10
2022-10-17T19:36:49.781Z,7.67
2022-10-17T19:39:21.352Z,9.33
2022-10-17T19:41:50.782Z,9.73
2022-10-17T19:44:18.571Z,8.73
2022-10-17T19:46:48.973Z,8.20
2022-10-17T19:49:17.073Z,8.70
2022-10-17T19:51:45.212Z,9.57
2022-10-17T19:54:15.024Z,8.57
2022-10-17T19:56:43.465Z,8.00
2022-10-17T19:59:14.844Z,8.73
2022-10-17T20:01:43.349Z,7.67
2022-10-17T20:04:12.179Z,8.27
2022-10-17T20:06:40.944Z,8.87
2022-10-17T20:09:12.385Z,8.73
2022-10-17T20:11:43.745Z,8.40
2022-10-17T20:14:12.961Z,9.37
2022-10-17T20:16:40.844Z,8.40
2022-10-17T20:19:10.951Z,9.00
2022-10-17T20:21:39.941Z,8.10
2022-10-17T20:24:09.663Z,8.87
2022-10-17T20:26:38.980Z,7.83
2022-10-17T20:29:10.863Z,7.80
2022-10-17T20:31:42.148Z,8.53
2022-10-17T20:34:12.493Z,8.53
2022-10-17T20:36:40.334Z,8.27
2022-10-17T20:39:08.521Z,8.90
2022-10-17T20:41:36.489Z,7.53
2022-10-17T20:44:04.725Z,7.33
2022-10-17T20:46:37.253Z,7.73
2022-10-17T20:49:09.777Z,7.20
2022-10-17T20:51:37.687Z,7.33
2022-10-17T20:54:06.019Z,7.50
2022-10-17T20:56:35.432Z,7.70
2022-10-17T20:59:05.438Z,7.60
2022-10-17T21:01:35.717Z,7.53
2022-10-17T21:04:33.460Z,7.83
2022-10-17T21:06:53.881Z,7.60
2022-10-17T21:09:23.009Z,8.33
2022-10-17T21:11:54.928Z,8.50
2022-10-17T21:14:23.905Z,8.47
2022-10-17T21:16:53.110Z,8.30
2022-10-17T21:19:21.704Z,8.10
2022-10-17T21:21:49.482Z,8.10
2022-10-17T21:24:20.491Z,8.13
2022-10-17T21:26:55.039Z,8.03
2022-10-17T21:29:24.209Z,8.10
2022-10-17T21:31:52.312Z,8.00
2022-10-17T21:34:23.850Z,7.63
2022-10-17T21:36:52.174Z,6.97
2022-10-17T21:39:21.753Z,7.57
2022-10-17T21:41:49.544Z,6.30
2022-10-17T21:44:18.671Z,7.30
2022-10-17T21:46:47.065Z,7.37
2022-10-17T21:49:17.682Z,7.43
2022-10-17T21:51:47.360Z,6.13
2022-10-17T21:54:16.080Z,7.07
2022-10-17T21:56:45.430Z,7.27
2022-10-17T21:59:13.558Z,8.03
2022-10-17T22:01:43.780Z,7.20
2022-10-17T22:04:14.240Z,7.37
2022-10-17T22:06:43.955Z,7.20
2022-10-17T22:09:15.627Z,7.03
2022-10-17T22:11:47.278Z,6.30
2022-10-17T22:14:16.921Z,7.07
2022-10-17T22:16:46.470Z,6.93
2022-10-17T22:19:16.692Z,7.10
2022-10-17T22:21:44.496Z,7.00
2022-10-17T22:24:14.543Z,6.83
2022-10-17T22:26:42.975Z,6.53
2022-10-17T22:29:13.485Z,7.10
2022-10-17T22:31:41.723Z,6.97
2022-10-17T22:34:12.099Z,7.27
2022-10-17T22:36:40.121Z,7.30
2022-10-17T22:39:17.026Z,6.70
2022-10-17T22:41:45.236Z,6.93
2022-10-17T22:44:16.693Z,6.50
2022-10-17T22:46:46.377Z,6.97
2022-10-17T22:49:14.191Z,7.10
2022-10-17T22:51:45.225Z,6.73
2022-10-17T22:54:13.017Z,6.87
2022-10-17T22:56:41.255Z,7.23
2022-10-17T22:59:09.082Z,7.33
2022-10-17T23:01:41.411Z,6.90
2022-10-17T23:04:09.228Z,8.00
2022-10-17T23:06:37.242Z,7.07
2022-10-17T23:09:05.762Z,7.33
2022-10-17T23:11:33.675Z,7.77
2022-10-17T23:14:01.461Z,7.43
2022-10-17T23:16:29.267Z,6.83
2022-10-17T23:18:58.768Z,7.10
2022-10-17T23:21:26.550Z,7.53
2022-10-17T23:23:56.496Z,7.73
2022-10-17T23:26:24.590Z,7.03
2022-10-17T23:29:00.743Z,6.80
2022-10-17T23:31:31.925Z,7.33
2022-10-17T23:34:01.140Z,7.53
2022-10-17T23:36:29.135Z,6.97
2022-10-17T23:38:58.606Z,6.20
2022-10-17T23:41:33.050Z,6.17
2022-10-17T23:44:03.112Z,7.10
2022-10-17T23:49:43.397Z,6.27
2022-10-17T23:52:11.408Z,6.50
2022-10-17T23:54:39.204Z,6.53
2022-10-17T23:57:07.141Z,7.20
2022-10-17T23:59:34.914Z,7.03
